Latest Coastal Weather Observations for Cape Borda

IDT60701

Issued at 4:52 am EDT Friday 18 October 2019 (issued every 10 minutes, with the page automatically refreshed every 10 minutes)

About coastal observations | Map of coastal stations | Coastal observations for TAS | Marine services | Other Formats
Station Details ID: 022823 Name: CAPE BORDA Lat: -35.75 Lon: 136.60 Height: 158.0 m
Data from the previous 72 hours. | See also: Recent months at Cape Borda
Date/Time
EDT
Wind Sea
Height
m
Swell Vis
km
Cloud Weather Temp
°C
Press
hPa
Rain since
9am
mm
Dir  Spd
kts
Gust
kts
Height
m
Period
s
Dir
18/04:30am WNW 18 25 - - - - - - - 12.4 1014.7 0.0
18/04:20am NW 17 27 - - - - - - - 12.8 1014.6 0.0
18/04:00am NW 17 25 - - - - - - - 12.5 1015.0 0.0
18/03:30am NW 14 21 - - - - - - - 12.3 1015.2 0.0
18/03:00am NW 16 22 - - - - - - - 12.3 1015.9 0.0
18/02:30am WNW 15 21 - - - - - - - 12.1 1016.1 0.0
18/02:00am NW 17 23 - - - - - - - 12.3 1016.6 0.0
18/01:30am WNW 17 23 - - - - - - - 12.1 1016.8 0.0
18/01:18am NW 18 28 - - - - - - - 12.4 1016.8 0.0
18/01:00am NW 16 23 - - - - - - - 12.5 1017.0 0.0
18/12:30am NW 16 23 - - - - - - - 12.6 1017.3 0.0
18/12:00am NW 16 21 - - - - - - - 12.3 1017.4 0.0
 
Date/Time
EDT
Wind Sea
Height
m
Swell Vis
km
Cloud Weather Temp
°C
Press
hPa
Rain since
9am
mm
Dir  Spd
kts
Gust
kts
Height
m
Period
s
Dir
17/11:30pm NW 14 21 - - - - - - - 12.4 1017.7 0.0
17/11:00pm NW 13 19 - - - - - - - 12.3 1017.9 0.0
17/10:30pm WNW 15 22 - - - - - - - 12.3 1018.0 0.0
17/10:00pm WNW 13 17 - - - - - - - 12.4 1017.9 0.0
17/09:30pm WNW 13 18 - - - - - - - 12.1 1017.7 0.0
17/09:00pm WNW 13 19 - - - - - - - 11.9 1017.6 0.0
17/08:30pm WNW 14 21 - - - - - - - 12.1 1017.6 0.0
17/08:00pm NW 13 19 - - - - - - - 12.1 1017.6 0.0
17/07:30pm WNW 11 17 - - - - - - - 12.1 1017.8 0.0
17/07:00pm WNW 13 18 - - - - - - - 12.6 1017.9 0.0
17/06:30pm WNW 12 16 - - - - - - - 12.6 1018.0 0.0
17/06:00pm WNW 13 17 - - - - - - - 12.9 1018.1 0.0
17/05:30pm WNW 14 21 - - - - - - - 13.1 1018.2 0.0
17/05:00pm WNW 14 20 - - - - - - - 13.7 1018.3 0.0
17/04:30pm W 15 19 - - - - - - - 13.5 1018.3 0.0
17/04:00pm W 14 19 - - - - - - - 14.0 1018.6 0.0
17/03:30pm W 13 18 - - - - - - - 14.7 1018.8 0.0
17/03:00pm W 13 17 - - - - - - - 14.6 1018.9 0.0
17/02:30pm W 11 15 - - - - - - - 13.5 1019.2 0.0
17/02:00pm W 10 13 - - - - - - - 13.6 1019.3 0.0
17/01:30pm W 11 15 - - - - - - - 13.7 1019.3 0.0
17/01:00pm W 12 19 - - - - - - - 13.4 1019.4 0.0
17/12:30pm WSW 12 17 - - - - - - - 13.6 1019.3 0.0
17/12:00pm WSW 13 19 - - - - - - - 13.2 1019.3 0.0
17/11:30am W 13 17 - - - - - - - 13.0 1019.3 0.0
17/11:00am WSW 13 18 - - - - - - - 13.6 1019.2 0.0
17/10:30am SW 13 18 - - - - - - - 13.0 1019.1 0.0
17/10:00am SW 13 18 - - - - - - - 12.7 1018.9 0.0
17/09:30am SW 15 21 - - - - - - - 11.5 1018.6 0.6
17/09:00am SW 15 21 - - - - - - - 11.0 1018.3 0.6
17/08:30am WSW 15 22 - - - - - - - 10.5 1018.1 0.6
17/08:00am SW 15 23 - - - - - - - 10.1 1017.9 0.6
17/07:30am SW 17 24 - - - - - - - 10.1 1017.4 0.4
17/07:00am SW 15 22 - - - - - - - 10.2 1016.9 0.4
17/06:30am SW 16 23 - - - - - - - 10.1 1016.6 0.4
17/06:00am SW 18 24 - - - - - - - 9.9 1016.1 0.4
17/05:49am SW 17 27 - - - - - - - 9.8 1016.0 0.4
17/05:30am SW 18 25 - - - - - - - 9.9 1016.0 0.4
17/05:00am WSW 15 24 - - - - - - - 10.0 1015.8 0.4
17/04:30am SW 18 29 - - - - - - - 9.3 1015.8 0.4
17/04:23am SW 18 29 - - - - - - - 9.5 1015.8 0.4
17/04:00am SW 19 28 - - - - - - - 9.1 1015.8 0.4
17/03:30am SW 17 27 - - - - - - - 10.1 1015.7 0.4
17/03:00am SW 18 27 - - - - - - - 9.7 1015.9 0.4
17/02:30am SW 20 30 - - - - - - - 9.7 1016.1 0.4
17/02:20am SW 17 29 - - - - - - - 10.1 1016.2 0.4
17/02:00am SW 18 26 - - - - - - - 10.2 1016.2 0.4
17/01:56am SW 18 28 - - - - - - - 10.1 1016.3 0.4
17/01:30am SW 19 27 - - - - - - - 10.0 1016.2 0.4
17/01:00am SW 18 28 - - - - - - - 9.9 1016.1 0.4
17/12:37am SW 19 29 - - - - - - - 9.6 1016.0 0.4
17/12:30am WSW 20 28 - - - - - - - 9.5 1015.7 0.4
17/12:00am SW 19 32 - - - - - - - 10.5 1015.7 0.4
 
Date/Time
EDT
Wind Sea
Height
m
Swell Vis
km
Cloud Weather Temp
°C
Press
hPa
Rain since
9am
mm
Dir  Spd
kts
Gust
kts
Height
m
Period
s
Dir
16/11:35pm WSW 19 29 - - - - - - - 10.3 1015.4 0.4
16/11:30pm SW 19 26 - - - - - - - 10.2 1015.5 0.4
16/11:17pm SW 17 27 - - - - - - - 10.5 1015.4 0.4
16/11:00pm SW 18 26 - - - - - - - 10.2 1015.3 0.4
16/10:36pm SW 20 30 - - - - - - - 10.2 1015.2 0.4
16/10:30pm SW 19 28 - - - - - - - 9.9 1015.1 0.4
16/10:06pm WSW 21 31 - - - - - - - 10.7 1014.8 0.4
16/10:00pm WSW 21 30 - - - - - - - 10.7 1014.7 0.4
16/09:30pm WSW 22 32 - - - - - - - 10.8 1014.4 0.4
16/09:02pm WSW 21 31 - - - - - - - 10.4 1014.3 0.4
16/09:00pm WSW 22 31 - - - - - - - 10.6 1014.2 0.4
16/08:54pm WSW 21 31 - - - - - - - 11.2 1013.9 0.4
16/08:30pm WSW 23 31 - - - - - - - 11.0 1013.8 0.4
16/08:02pm WSW 19 29 - - - - - - - 11.2 1013.6 0.4
16/08:00pm WSW 20 28 - - - - - - - 11.1 1013.5 0.4
16/07:30pm WSW 20 30 - - - - - - - 11.2 1013.4 0.4
16/07:13pm WSW 20 30 - - - - - - - 11.3 1013.3 0.4
16/07:09pm SW 23 30 - - - - - - - 11.2 1013.2 0.4
16/07:04pm W 22 32 - - - - - - - 12.2 1013.2 0.4
16/07:00pm W 24 32 - - - - - - - 12.2 1013.1 0.4
16/06:30pm W 18 26 - - - - - - - 11.9 1013.0 0.4
16/06:00pm WSW 21 33 - - - - - - - 11.8 1012.7 0.2
16/05:30pm WSW 19 29 - - - - - - - 12.9 1012.4 0.2
16/05:00pm W 20 29 - - - - - - - 12.1 1012.3 0.2
16/04:51pm W 18 28 - - - - - - - 12.6 1012.3 0.2
16/04:30pm W 20 29 - - - - - - - 10.7 1012.2 0.2
16/04:16pm W 20 31 - - - - - - - 12.2 1012.4 0.0
16/04:00pm WNW 19 26 - - - - - - - 15.0 1012.3 0.0
16/03:30pm WNW 20 27 - - - - - - - 14.0 1012.5 0.0
16/03:00pm WNW 18 25 - - - - - - - 15.4 1012.8 0.0
16/02:30pm WNW 16 22 - - - - - - - 15.2 1013.2 0.0
16/02:00pm WNW 15 21 - - - - - - - 14.8 1013.3 0.0
16/01:30pm WNW 16 22 - - - - - - - 15.5 1013.4 0.0
16/01:00pm WNW 16 21 - - - - - - - 14.8 1013.7 0.0
16/12:30pm WNW 14 20 - - - - - - - 15.3 1013.8 0.0
16/12:00pm W 13 19 - - - - - - - 14.1 1014.0 0.0
16/11:30am W 11 16 - - - - - - - 14.4 1014.2 0.0
16/11:00am WSW 11 17 - - - - - - - 13.9 1014.0 0.0
16/10:30am WSW 13 20 - - - - - - - 13.1 1014.2 0.0
16/10:00am W 11 17 - - - - - - - 13.0 1013.9 0.0
16/09:30am WSW 13 16 - - - - - - - 12.5 1014.0 2.0
16/09:00am WSW 12 17 - - - - - - - 11.9 1013.9 -
16/08:30am WSW 13 19 - - - - - - - 11.1 1013.7 -
16/08:00am SW 12 16 - - - - - - - 10.5 1013.7 -
16/07:30am SW 13 18 - - - - - - - 9.8 1013.3 -
16/07:00am SW 11 15 - - - - - - - 9.8 1013.1 -
16/06:30am SSW 10 14 - - - - - - - 10.0 1012.8 -
16/06:00am SSW 11 16 - - - - - - - 10.5 1012.8 -
16/05:30am SSW 10 13 - - - - - - - 10.5 1012.9 -
16/05:00am SSW 10 16 - - - - - - - 10.9 1012.7 -
16/04:30am SW 12 16 - - - - - - - 10.8 1012.8 -
16/04:00am W 6 8 - - - - - - - 11.6 1012.7 -
16/03:30am NW 10 14 - - - - - - - 11.7 1012.9 1.0
16/03:00am WNW 4 7 - - - - - - - 11.8 1012.9 -
16/02:30am W 4 6 - - - - - - - 11.4 1012.7 -
16/02:00am S 3 5 - - - - - - - 10.8 1012.8 -
16/01:30am S 3 3 - - - - - - - 10.8 1012.7 -
16/01:00am SW 4 4 - - - - - - - 11.2 1013.3 -
16/12:30am CALM 0 0 - - - - - - - 11.0 1013.6 -
16/12:00am S 4 4 - - - - - - - 10.8 1013.8 -
 
Date/Time
EDT
Wind Sea
Height
m
Swell Vis
km
Cloud Weather Temp
°C
Press
hPa
Rain since
9am
mm
Dir  Spd
kts
Gust
kts
Height
m
Period
s
Dir
15/11:30pm S 4 5 - - - - - - - 10.8 1014.0 -
15/11:00pm ESE 6 10 - - - - - - - 11.2 1013.9 -
15/10:30pm CALM 0 0 - - - - - - - 11.0 1014.9 -
15/10:05pm - - - - - - - - - - 10.9 1014.5 -
15/10:00pm CALM 0 0 - - - - - - - 11.1 1014.5 0.0
15/09:30pm ESE 5 7 - - - - - - - 11.2 1014.1 0.0
15/09:00pm S 4 5 - - - - - - - 11.4 1014.6 0.0
15/08:30pm SSW 6 9 - - - - - - - 11.7 1014.6 0.0
15/08:00pm W 3 6 - - - - - - - 11.6 1013.7 0.0
15/07:30pm WSW 5 8 - - - - - - - 11.9 1014.0 0.0
15/07:00pm S 4 7 - - - - - - - 12.1 1012.8 0.0
15/06:30pm ENE 5 8 - - - - - - - 12.2 1013.3 0.0
15/06:00pm WSW 8 13 - - - - - - - 12.2 1014.9 0.0
15/05:30pm W 7 11 - - - - - - - 12.1 1014.0 0.0
15/05:21pm WNW 6 11 - - - - - - - 12.1 1014.2 0.0
15/05:13pm NE 10 13 - - - - - - - 12.1 1012.0 0.0
15/05:00pm NW 5 7 - - - - - - - 12.2 1014.0 0.0
15/04:30pm WNW 6 9 - - - - - - - 12.4 1015.1 0.0
15/04:00pm WNW 6 8 - - - - - - - 12.6 1015.5 0.0
15/03:30pm NNW 5 6 - - - - - - - 13.0 1014.6 0.0
15/03:00pm NW 5 7 - - - - - - - 13.6 1014.8 0.0
15/02:30pm WNW 5 6 - - - - - - - 13.1 1015.3 0.0
15/02:00pm WNW 7 8 - - - - - - - 13.4 1015.8 0.0
15/01:30pm WNW 7 11 - - - - - - - 14.5 1015.8 0.0
15/01:00pm NW 7 9 - - - - - - - 14.1 1016.1 0.0
15/12:30pm NNW 7 9 - - - - - - - 13.9 1016.6 0.0
15/12:00pm NNW 6 8 - - - - - - - 15.3 1016.1 0.0
15/11:30am N 6 8 - - - - - - - 13.9 1016.0 0.0
15/11:00am N 7 8 - - - - - - - 13.8 1016.6 0.0
15/10:30am N 5 6 - - - - - - - 12.9 1016.5 0.0
15/10:00am N 5 7 - - - - - - - 13.3 1016.3 0.0
15/09:30am N 5 7 <0.5 2.9 7 SW 20 Mostly clear Haze 12.4 1016.7 0.2
15/09:00am N 6 7 - - - - - - - 12.2 1016.3 0.2
15/08:30am N 4 5 - - - - - - - 11.3 1016.6 0.2
15/08:00am NE 6 7 - - - - - - - 9.7 1015.6 0.0
15/07:30am ENE 8 10 - - - - - - - 9.1 1015.0 0.0
15/07:00am NE 8 9 - - - - - - - 8.3 1014.9 0.0
15/06:30am ENE 5 6 - - - - - - - 7.5 1015.4 0.0
15/06:00am ESE 7 7 - - - - - - - 7.2 1015.6 0.0
15/05:30am ESE 5 6 - - - - - - - 7.7 1015.8 0.0

Other formats

Comma delimited format used in spreadsheet applications
http://www.bom.gov.au/fwo/IDT60701/IDT60701.95805.axf

JavaScript Object Notation format (JSON) in row-major order
http://www.bom.gov.au/fwo/IDT60701/IDT60701.95805.json

Data quality

Most of these data are generated automatically and are frequently updated. Quality checks on data are not normally performed. It is possible for incorrect values to appear. Refer to information at About Latest Weather Observations and please check the disclaimer before using these data.